createdAt,value
2023-02-15T00:02:04.765Z,18.17
2023-02-15T00:06:09.504Z,21.48
2023-02-15T00:10:13.148Z,19.95
2023-02-15T00:14:18.302Z,17.55
2023-02-15T00:18:21.211Z,17.63
2023-02-15T00:22:25.586Z,17.52
2023-02-15T00:26:29.327Z,20.77
2023-02-15T00:30:34.038Z,16.08
2023-02-15T00:34:37.599Z,20.77
2023-02-15T00:38:42.193Z,18.55
2023-02-15T00:42:45.174Z,18.70
2023-02-15T00:46:48.268Z,19.70
2023-02-15T00:50:52.699Z,20.75
2023-02-15T00:54:57.713Z,18.63
2023-02-15T00:59:00.714Z,19.08
2023-02-15T01:03:03.802Z,17.38
2023-02-15T01:07:06.938Z,21.25
2023-02-15T01:11:13.616Z,17.67
2023-02-15T01:15:16.591Z,16.30
2023-02-15T01:19:19.608Z,15.32
2023-02-15T01:23:22.882Z,20.55
2023-02-15T01:27:27.293Z,19.42
2023-02-15T01:31:30.338Z,19.42
2023-02-15T01:35:33.778Z,14.90
2023-02-15T01:39:36.708Z,17.63
2023-02-15T01:43:46.827Z,17.95
2023-02-15T01:47:54.950Z,19.00
2023-02-15T01:52:00.053Z,17.67
2023-02-15T01:56:07.521Z,17.98
2023-02-15T02:00:13.212Z,16.15
2023-02-15T02:04:20.884Z,14.98
2023-02-15T02:08:24.225Z,15.15
2023-02-15T02:12:27.911Z,14.30
2023-02-15T02:16:41.840Z,15.82
2023-02-15T02:21:27.994Z,14.77
2023-02-15T02:26:01.732Z,17.17
2023-02-15T02:30:29.808Z,12.63
2023-02-15T02:34:40.659Z,12.80
2023-02-15T02:38:55.227Z,13.30
2023-02-15T02:43:03.978Z,14.95
2023-02-15T02:47:13.021Z,14.15
2023-02-15T02:51:22.423Z,17.38
2023-02-15T02:55:32.244Z,15.07
2023-02-15T02:59:41.616Z,12.88
2023-02-15T03:03:49.184Z,13.95
2023-02-15T03:07:55.723Z,12.45
2023-02-15T03:11:59.252Z,16.23
2023-02-15T03:16:21.300Z,15.75
2023-02-15T03:20:29.395Z,13.77
2023-02-15T03:24:37.209Z,11.52
2023-02-15T03:28:45.997Z,16.00
2023-02-15T03:32:50.795Z,13.77
2023-02-15T03:37:00.104Z,13.63
2023-02-15T03:41:12.691Z,13.82
2023-02-15T03:45:19.803Z,14.23
2023-02-15T03:49:26.556Z,15.05
2023-02-15T03:53:29.750Z,14.45
2023-02-15T03:57:56.292Z,14.63
2023-02-15T04:02:13.493Z,14.52
2023-02-15T04:06:16.619Z,13.02
2023-02-15T04:10:37.208Z,13.40
2023-02-15T04:14:59.515Z,16.05
2023-02-15T04:19:19.862Z,15.43
2023-02-15T04:23:40.189Z,16.33
2023-02-15T04:27:44.830Z,16.20
2023-02-15T04:31:49.831Z,13.43
2023-02-15T04:35:52.847Z,15.43
2023-02-15T04:39:55.928Z,15.85
2023-02-15T04:43:58.844Z,12.82
2023-02-15T04:48:03.217Z,14.85
2023-02-15T04:52:06.346Z,15.68
2023-02-15T04:56:09.560Z,15.65
2023-02-15T05:00:13.210Z,13.65
2023-02-15T05:04:18.079Z,16.35
2023-02-15T05:08:21.049Z,15.23
2023-02-15T05:12:24.084Z,14.52
2023-02-15T05:16:28.701Z,13.23
2023-02-15T05:20:33.272Z,14.68
2023-02-15T05:24:53.914Z,13.10
2023-02-15T05:28:56.910Z,15.60
2023-02-15T05:32:59.844Z,14.73
2023-02-15T05:37:04.259Z,14.27
2023-02-15T05:41:07.410Z,15.20
2023-02-15T05:45:10.822Z,14.45
2023-02-15T05:49:13.859Z,14.65
2023-02-15T05:53:18.223Z,14.43
2023-02-15T05:57:21.283Z,13.18
2023-02-15T06:01:24.580Z,15.82
2023-02-15T06:05:27.819Z,12.63
2023-02-15T06:09:32.244Z,15.27
2023-02-15T06:13:38.531Z,15.05
2023-02-15T06:17:43.482Z,16.42
2023-02-15T06:21:46.547Z,12.88
2023-02-15T06:25:50.981Z,14.30
2023-02-15T06:29:53.928Z,12.30
2023-02-15T06:34:01.908Z,12.18
2023-02-15T06:38:04.872Z,14.98
2023-02-15T06:42:09.253Z,11.68
2023-02-15T06:46:12.212Z,14.38
2023-02-15T06:50:15.265Z,12.68
2023-02-15T06:54:18.269Z,11.77
2023-02-15T06:58:22.685Z,13.70
2023-02-15T07:02:25.795Z,14.38
2023-02-15T07:06:33.339Z,14.93
2023-02-15T07:10:36.260Z,19.48
2023-02-15T07:14:41.583Z,15.10
2023-02-15T07:18:44.671Z,15.00
2023-02-15T07:22:48.084Z,15.52
2023-02-15T07:26:51.031Z,18.30
2023-02-15T07:30:55.700Z,19.73
2023-02-15T07:34:59.386Z,19.83
2023-02-15T07:39:02.423Z,26.58
2023-02-15T07:43:05.497Z,23.58
2023-02-15T07:47:09.887Z,19.48
2023-02-15T07:51:15.381Z,21.85
2023-02-15T07:55:19.553Z,21.27
2023-02-15T07:59:22.541Z,19.63
2023-02-15T08:03:28.081Z,19.63
2023-02-15T08:07:31.243Z,19.58
2023-02-15T08:11:37.534Z,19.65
2023-02-15T08:15:40.499Z,20.90
2023-02-15T08:19:45.066Z,20.52
2023-02-15T08:23:48.569Z,22.08
2023-02-15T08:27:51.767Z,18.65
2023-02-15T08:31:56.617Z,17.63
2023-02-15T08:36:04.900Z,19.52
2023-02-15T08:40:09.153Z,23.67
2023-02-15T08:44:12.774Z,20.90
2023-02-15T08:48:15.760Z,20.75
2023-02-15T08:52:20.143Z,19.52
2023-02-15T08:56:25.706Z,17.83
2023-02-15T09:00:29.380Z,22.02
2023-02-15T09:04:32.586Z,21.75
2023-02-15T09:08:37.653Z,20.25
2023-02-15T09:12:40.697Z,17.92
2023-02-15T09:16:47.375Z,19.25
2023-02-15T09:20:50.422Z,18.90
2023-02-15T09:24:54.956Z,18.55
2023-02-15T09:28:59.861Z,16.90
2023-02-15T09:33:03.067Z,19.77
2023-02-15T09:37:07.481Z,19.00
2023-02-15T09:41:28.531Z,19.65
2023-02-15T09:45:43.307Z,21.05
2023-02-15T09:49:52.860Z,19.67
2023-02-15T09:54:12.351Z,19.05
2023-02-15T09:58:22.432Z,18.60
2023-02-15T10:02:40.738Z,18.70
2023-02-15T10:06:57.879Z,22.75
2023-02-15T10:11:25.075Z,23.60
2023-02-15T10:15:45.010Z,21.30
2023-02-15T10:20:06.534Z,19.98
2023-02-15T10:24:40.536Z,20.15
2023-02-15T10:28:48.917Z,16.70
2023-02-15T10:33:01.655Z,19.00
2023-02-15T10:37:41.296Z,20.80
2023-02-15T10:41:54.133Z,18.23
2023-02-15T10:46:05.012Z,21.30
2023-02-15T10:50:40.343Z,18.63
2023-02-15T10:54:50.999Z,19.95
2023-02-15T10:59:09.112Z,18.85
2023-02-15T11:03:34.685Z,17.92
2023-02-15T11:07:42.852Z,20.88
2023-02-15T11:11:51.439Z,20.60
2023-02-15T11:15:58.426Z,18.40
2023-02-15T11:20:09.986Z,21.42
2023-02-15T11:24:14.792Z,18.85
2023-02-15T11:28:26.989Z,16.95
2023-02-15T11:32:32.824Z,18.83
2023-02-15T11:36:40.096Z,24.15
2023-02-15T11:40:48.401Z,18.92
2023-02-15T11:45:00.958Z,20.77
2023-02-15T11:49:04.046Z,20.50
2023-02-15T11:53:13.321Z,19.25
2023-02-15T11:57:21.304Z,19.10
2023-02-15T12:01:33.927Z,20.55
2023-02-15T12:05:41.407Z,21.25
2023-02-15T12:09:50.282Z,20.88
2023-02-15T12:13:58.350Z,22.30
2023-02-15T12:18:02.902Z,22.77
2023-02-15T12:22:10.343Z,20.70
2023-02-15T12:26:14.870Z,21.58
2023-02-15T12:30:24.244Z,18.08
2023-02-15T12:34:32.326Z,22.08
2023-02-15T12:38:36.776Z,22.23
2023-02-15T12:42:45.408Z,19.58
2023-02-15T12:47:00.096Z,22.40
2023-02-15T12:51:11.670Z,22.10
2023-02-15T12:55:23.940Z,19.73
2023-02-15T12:59:27.593Z,21.38
2023-02-15T13:03:30.687Z,19.77
2023-02-15T13:07:35.275Z,22.98
2023-02-15T13:11:39.264Z,21.77
2023-02-15T13:15:46.604Z,18.73
2023-02-15T13:19:52.820Z,20.38
2023-02-15T13:24:02.167Z,21.63
2023-02-15T13:28:07.232Z,19.98
2023-02-15T13:32:23.642Z,24.98
2023-02-15T13:36:33.931Z,20.65
2023-02-15T13:40:46.220Z,22.85
2023-02-15T13:45:12.526Z,20.08
2023-02-15T13:49:26.328Z,18.08
2023-02-15T13:53:53.047Z,21.13
2023-02-15T13:58:37.843Z,21.92
2023-02-15T14:03:02.800Z,18.08
2023-02-15T14:07:26.125Z,18.55
2023-02-15T14:11:37.546Z,19.23
2023-02-15T14:15:46.715Z,18.73
2023-02-15T14:19:56.676Z,19.85
2023-02-15T14:24:14.597Z,21.15
2023-02-15T14:28:22.987Z,22.75
2023-02-15T14:32:33.583Z,19.83
2023-02-15T14:36:38.147Z,20.77
2023-02-15T14:41:03.384Z,23.88
2023-02-15T14:45:19.228Z,22.65
2023-02-15T14:49:25.148Z,21.85
2023-02-15T14:53:47.149Z,25.38
2023-02-15T14:58:00.568Z,23.25
2023-02-15T15:02:14.112Z,22.13
2023-02-15T15:06:27.721Z,21.67
2023-02-15T15:10:44.415Z,22.95
2023-02-15T15:14:47.338Z,23.67
2023-02-15T15:18:51.266Z,20.48
2023-02-15T15:23:34.712Z,23.10
2023-02-15T15:27:47.003Z,22.38
2023-02-15T15:31:57.199Z,22.17
2023-02-15T15:36:19.575Z,21.55
2023-02-15T15:40:50.452Z,22.27
2023-02-15T15:45:36.207Z,25.27
2023-02-15T15:49:40.730Z,25.40
2023-02-15T15:53:49.974Z,22.83
2023-02-15T15:57:55.624Z,23.73
2023-02-15T16:02:06.422Z,19.33
2023-02-15T16:06:15.789Z,23.20
2023-02-15T16:10:24.519Z,22.23
2023-02-15T16:14:30.986Z,21.38
2023-02-15T16:18:39.867Z,18.35
2023-02-15T16:22:43.120Z,22.60
2023-02-15T16:27:17.583Z,23.45
2023-02-15T16:31:23.189Z,23.60
2023-02-15T16:35:28.265Z,23.15
2023-02-15T16:39:35.070Z,19.48
2023-02-15T16:43:39.700Z,23.05
2023-02-15T16:47:47.989Z,23.75
2023-02-15T16:52:01.183Z,23.55
2023-02-15T16:56:07.321Z,25.05
2023-02-15T17:00:21.777Z,21.25
2023-02-15T17:04:33.223Z,24.60
2023-02-15T17:08:44.712Z,28.67
2023-02-15T17:12:49.707Z,22.67
2023-02-15T17:16:57.410Z,21.13
2023-02-15T17:21:03.834Z,28.95
2023-02-15T17:25:08.673Z,28.08
2023-02-15T17:29:21.658Z,25.63
2023-02-15T17:33:30.102Z,24.92
2023-02-15T17:37:44.454Z,24.00
2023-02-15T17:41:48.958Z,26.02
2023-02-15T17:45:53.304Z,25.67
2023-02-15T17:49:56.549Z,26.48
2023-02-15T17:54:16.711Z,23.38
2023-02-15T17:58:22.479Z,26.10
2023-02-15T18:02:43.148Z,23.42
2023-02-15T18:07:03.900Z,27.05
2023-02-15T18:11:24.134Z,24.48
2023-02-15T18:15:28.799Z,26.67
2023-02-15T18:19:32.780Z,25.85
2023-02-15T18:23:35.811Z,26.70
2023-02-15T18:27:38.735Z,28.35
2023-02-15T18:31:44.251Z,24.55
2023-02-15T18:35:49.240Z,28.98
2023-02-15T18:39:54.376Z,28.50
2023-02-15T18:43:57.504Z,27.33
2023-02-15T18:48:02.208Z,27.48
2023-02-15T18:52:05.487Z,24.55
2023-02-15T18:56:13.940Z,25.55
2023-02-15T19:00:19.385Z,27.20
2023-02-15T19:04:25.801Z,31.20
2023-02-15T19:08:29.516Z,31.23
2023-02-15T19:12:32.939Z,33.90
2023-02-15T19:16:37.708Z,32.03
2023-02-15T19:20:45.106Z,28.65
2023-02-15T19:24:49.057Z,28.83
2023-02-15T19:28:52.327Z,27.88
2023-02-15T19:32:55.509Z,30.27
2023-02-15T19:37:00.440Z,34.83
2023-02-15T19:41:07.379Z,32.25
2023-02-15T19:45:15.512Z,36.08
2023-02-15T19:49:18.727Z,27.63
2023-02-15T19:53:25.809Z,29.20
2023-02-15T19:57:29.050Z,32.27
2023-02-15T20:01:32.098Z,30.23
2023-02-15T20:05:38.376Z,30.63
2023-02-15T20:09:43.653Z,31.13
2023-02-15T20:13:47.645Z,28.97
2023-02-15T20:17:51.278Z,33.90
2023-02-15T20:21:55.028Z,38.23
2023-02-15T20:26:02.263Z,34.45
2023-02-15T20:30:08.336Z,31.75
2023-02-15T20:34:11.900Z,36.03
2023-02-15T20:38:20.465Z,27.40
2023-02-15T20:42:24.880Z,33.90
2023-02-15T20:46:28.027Z,28.27
2023-02-15T20:50:33.690Z,24.87
2023-02-15T20:54:38.050Z,32.72
2023-02-15T20:58:42.524Z,29.63
2023-02-15T21:02:46.751Z,29.02
2023-02-15T21:06:49.884Z,32.00
2023-02-15T21:10:54.568Z,31.77
2023-02-15T21:14:59.246Z,26.05
2023-02-15T21:19:02.174Z,26.80
2023-02-15T21:23:07.137Z,30.23
2023-02-15T21:27:14.370Z,28.47
2023-02-15T21:31:20.703Z,25.43
2023-02-15T21:35:24.225Z,31.67
2023-02-15T21:39:30.714Z,31.37
2023-02-15T21:43:51.077Z,32.73
2023-02-15T21:47:55.503Z,30.57
2023-02-15T21:52:14.287Z,30.30
2023-02-15T21:56:19.554Z,31.57
2023-02-15T22:00:24.624Z,32.97
2023-02-15T22:04:31.172Z,33.63
2023-02-15T22:08:35.199Z,29.10
2023-02-15T22:12:38.936Z,32.37
2023-02-15T22:16:42.134Z,27.77
2023-02-15T22:20:46.626Z,30.33
2023-02-15T22:24:49.557Z,34.47
2023-02-15T22:28:52.835Z,27.47
2023-02-15T22:32:57.716Z,31.00
2023-02-15T22:37:03.263Z,29.20
2023-02-15T22:41:06.652Z,34.93
2023-02-15T22:45:16.925Z,34.33
2023-02-15T22:49:20.196Z,31.70
2023-02-15T22:53:24.679Z,30.73
2023-02-15T22:57:32.063Z,35.73
2023-02-15T23:01:36.993Z,31.53
2023-02-15T23:05:40.017Z,33.43
2023-02-15T23:09:44.779Z,32.60
2023-02-15T23:13:49.747Z,34.57
2023-02-15T23:17:52.981Z,31.03
2023-02-15T23:21:56.063Z,31.93
2023-02-15T23:26:03.150Z,36.83
2023-02-15T23:30:14.284Z,32.30
2023-02-15T23:34:20.945Z,32.17
2023-02-15T23:38:27.335Z,29.63
2023-02-15T23:42:34.643Z,28.97
2023-02-15T23:46:42.620Z,31.83
2023-02-15T23:50:45.725Z,30.90
2023-02-15T23:54:48.647Z,34.77
2023-02-15T23:58:53.096Z,29.73
